sensor_id;sensor_type;location;lat;lon;timestamp;P1;durP1;ratioP1;P2;durP2;ratioP2
11711;SDS011;5912;51.034;6.984;2022-10-26T00:00:46;3.05;;;1.00;;
11711;SDS011;5912;51.034;6.984;2022-10-26T00:03:12;3.55;;;1.10;;
11711;SDS011;5912;51.034;6.984;2022-10-26T00:05:38;2.28;;;1.20;;
11711;SDS011;5912;51.034;6.984;2022-10-26T00:08:03;2.78;;;1.23;;
11711;SDS011;5912;51.034;6.984;2022-10-26T00:10:29;4.15;;;1.33;;
11711;SDS011;5912;51.034;6.984;2022-10-26T00:12:54;4.65;;;1.08;;
11711;SDS011;5912;51.034;6.984;2022-10-26T00:15:20;2.58;;;1.40;;
11711;SDS011;5912;51.034;6.984;2022-10-26T00:17:46;3.88;;;1.00;;
11711;SDS011;5912;51.034;6.984;2022-10-26T00:20:12;2.67;;;1.08;;
11711;SDS011;5912;51.034;6.984;2022-10-26T00:22:38;3.60;;;1.05;;
11711;SDS011;5912;51.034;6.984;2022-10-26T00:25:04;1.17;;;0.85;;
11711;SDS011;5912;51.034;6.984;2022-10-26T00:27:30;1.77;;;1.27;;
11711;SDS011;5912;51.034;6.984;2022-10-26T00:29:58;2.00;;;1.08;;
11711;SDS011;5912;51.034;6.984;2022-10-26T00:32:23;2.95;;;1.17;;
11711;SDS011;5912;51.034;6.984;2022-10-26T00:34:49;2.10;;;0.90;;
11711;SDS011;5912;51.034;6.984;2022-10-26T00:37:14;2.83;;;1.05;;
11711;SDS011;5912;51.034;6.984;2022-10-26T00:39:39;3.47;;;1.35;;
11711;SDS011;5912;51.034;6.984;2022-10-26T00:42:05;2.38;;;1.25;;
11711;SDS011;5912;51.034;6.984;2022-10-26T00:47:14;3.72;;;1.27;;
11711;SDS011;5912;51.034;6.984;2022-10-26T00:49:53;6.10;;;1.10;;
11711;SDS011;5912;51.034;6.984;2022-10-26T00:52:20;1.63;;;1.17;;
11711;SDS011;5912;51.034;6.984;2022-10-26T00:54:47;2.65;;;1.30;;
11711;SDS011;5912;51.034;6.984;2022-10-26T00:57:15;1.85;;;0.98;;
11711;SDS011;5912;51.034;6.984;2022-10-26T00:59:42;3.05;;;1.20;;
11711;SDS011;5912;51.034;6.984;2022-10-26T01:02:09;3.10;;;1.20;;
11711;SDS011;5912;51.034;6.984;2022-10-26T01:04:35;2.47;;;1.27;;
11711;SDS011;5912;51.034;6.984;2022-10-26T01:07:01;1.58;;;1.00;;
11711;SDS011;5912;51.034;6.984;2022-10-26T01:09:28;2.88;;;1.00;;
11711;SDS011;5912;51.034;6.984;2022-10-26T01:11:54;3.08;;;1.05;;
11711;SDS011;5912;51.034;6.984;2022-10-26T01:14:19;2.28;;;1.08;;
11711;SDS011;5912;51.034;6.984;2022-10-26T01:19:41;2.28;;;1.30;;
11711;SDS011;5912;51.034;6.984;2022-10-26T01:22:31;3.53;;;1.17;;
11711;SDS011;5912;51.034;6.984;2022-10-26T01:27:46;3.55;;;1.02;;
11711;SDS011;5912;51.034;6.984;2022-10-26T01:30:18;1.95;;;1.05;;
11711;SDS011;5912;51.034;6.984;2022-10-26T01:32:45;3.20;;;1.13;;
11711;SDS011;5912;51.034;6.984;2022-10-26T01:38:30;2.30;;;1.00;;
11711;SDS011;5912;51.034;6.984;2022-10-26T01:41:11;2.25;;;1.20;;
11711;SDS011;5912;51.034;6.984;2022-10-26T01:43:43;5.03;;;1.35;;
11711;SDS011;5912;51.034;6.984;2022-10-26T01:46:14;1.83;;;1.08;;
11711;SDS011;5912;51.034;6.984;2022-10-26T01:48:42;3.55;;;1.25;;
11711;SDS011;5912;51.034;6.984;2022-10-26T01:51:10;4.85;;;1.00;;
11711;SDS011;5912;51.034;6.984;2022-10-26T01:53:44;3.35;;;1.20;;
11711;SDS011;5912;51.034;6.984;2022-10-26T01:56:16;10.60;;;1.35;;
11711;SDS011;5912;51.034;6.984;2022-10-26T01:58:51;2.92;;;0.85;;
11711;SDS011;5912;51.034;6.984;2022-10-26T02:04:24;1.15;;;0.90;;
11711;SDS011;5912;51.034;6.984;2022-10-26T02:09:40;2.05;;;0.98;;
11711;SDS011;5912;51.034;6.984;2022-10-26T02:15:06;2.92;;;0.90;;
11711;SDS011;5912;51.034;6.984;2022-10-26T02:19:59;3.15;;;0.95;;
11711;SDS011;5912;51.034;6.984;2022-10-26T02:22:32;6.25;;;1.02;;
11711;SDS011;5912;51.034;6.984;2022-10-26T02:25:03;2.58;;;1.20;;
11711;SDS011;5912;51.034;6.984;2022-10-26T02:27:33;1.60;;;0.98;;
11711;SDS011;5912;51.034;6.984;2022-10-26T02:30:03;4.07;;;1.10;;
11711;SDS011;5912;51.034;6.984;2022-10-26T02:32:30;6.03;;;1.00;;
11711;SDS011;5912;51.034;6.984;2022-10-26T02:35:00;3.55;;;1.35;;
11711;SDS011;5912;51.034;6.984;2022-10-26T02:37:26;2.55;;;1.05;;
11711;SDS011;5912;51.034;6.984;2022-10-26T02:39:53;1.50;;;0.85;;
11711;SDS011;5912;51.034;6.984;2022-10-26T02:42:22;3.08;;;0.95;;
11711;SDS011;5912;51.034;6.984;2022-10-26T02:44:50;1.95;;;1.20;;
11711;SDS011;5912;51.034;6.984;2022-10-26T02:47:21;4.93;;;1.20;;
11711;SDS011;5912;51.034;6.984;2022-10-26T02:49:47;1.40;;;1.00;;
11711;SDS011;5912;51.034;6.984;2022-10-26T02:52:23;1.98;;;1.00;;
11711;SDS011;5912;51.034;6.984;2022-10-26T02:55:34;2.50;;;1.15;;
11711;SDS011;5912;51.034;6.984;2022-10-26T02:58:05;4.30;;;1.05;;
11711;SDS011;5912;51.034;6.984;2022-10-26T03:00:38;1.92;;;1.05;;
11711;SDS011;5912;51.034;6.984;2022-10-26T03:03:04;1.63;;;1.10;;
11711;SDS011;5912;51.034;6.984;2022-10-26T03:05:30;2.45;;;1.23;;
11711;SDS011;5912;51.034;6.984;2022-10-26T03:07:56;4.97;;;1.13;;
11711;SDS011;5912;51.034;6.984;2022-10-26T03:10:23;6.70;;;1.27;;
11711;SDS011;5912;51.034;6.984;2022-10-26T03:12:48;2.78;;;0.82;;
11711;SDS011;5912;51.034;6.984;2022-10-26T03:15:14;2.25;;;0.93;;
11711;SDS011;5912;51.034;6.984;2022-10-26T03:17:39;1.25;;;0.95;;
11711;SDS011;5912;51.034;6.984;2022-10-26T03:20:05;1.17;;;0.90;;
11711;SDS011;5912;51.034;6.984;2022-10-26T03:22:31;3.45;;;1.20;;
11711;SDS011;5912;51.034;6.984;2022-10-26T03:24:57;3.80;;;0.93;;
11711;SDS011;5912;51.034;6.984;2022-10-26T03:27:22;3.90;;;1.02;;
11711;SDS011;5912;51.034;6.984;2022-10-26T03:29:47;2.58;;;1.00;;
11711;SDS011;5912;51.034;6.984;2022-10-26T03:32:12;4.63;;;1.67;;
11711;SDS011;5912;51.034;6.984;2022-10-26T03:34:38;1.17;;;1.02;;
11711;SDS011;5912;51.034;6.984;2022-10-26T03:37:03;2.50;;;1.10;;
11711;SDS011;5912;51.034;6.984;2022-10-26T03:39:28;4.85;;;1.23;;
11711;SDS011;5912;51.034;6.984;2022-10-26T03:41:54;1.27;;;0.82;;
11711;SDS011;5912;51.034;6.984;2022-10-26T03:44:22;4.60;;;1.08;;
11711;SDS011;5912;51.034;6.984;2022-10-26T03:46:47;2.63;;;1.80;;
11711;SDS011;5912;51.034;6.984;2022-10-26T03:49:12;2.95;;;1.10;;
11711;SDS011;5912;51.034;6.984;2022-10-26T03:51:37;3.15;;;1.10;;
11711;SDS011;5912;51.034;6.984;2022-10-26T03:54:03;2.72;;;1.25;;
11711;SDS011;5912;51.034;6.984;2022-10-26T03:56:29;4.45;;;1.08;;
11711;SDS011;5912;51.034;6.984;2022-10-26T03:58:54;7.10;;;1.35;;
11711;SDS011;5912;51.034;6.984;2022-10-26T04:01:19;2.80;;;0.90;;
11711;SDS011;5912;51.034;6.984;2022-10-26T04:03:45;3.13;;;1.20;;
11711;SDS011;5912;51.034;6.984;2022-10-26T04:06:13;2.95;;;1.10;;
11711;SDS011;5912;51.034;6.984;2022-10-26T04:08:38;2.38;;;1.00;;
11711;SDS011;5912;51.034;6.984;2022-10-26T04:11:03;3.20;;;1.02;;
11711;SDS011;5912;51.034;6.984;2022-10-26T04:13:29;3.03;;;1.10;;
11711;SDS011;5912;51.034;6.984;2022-10-26T04:15:54;3.65;;;1.45;;
11711;SDS011;5912;51.034;6.984;2022-10-26T04:18:22;11.45;;;1.65;;
11711;SDS011;5912;51.034;6.984;2022-10-26T04:20:48;5.38;;;1.30;;
11711;SDS011;5912;51.034;6.984;2022-10-26T04:23:14;4.05;;;1.60;;
11711;SDS011;5912;51.034;6.984;2022-10-26T04:25:40;1.55;;;1.00;;
11711;SDS011;5912;51.034;6.984;2022-10-26T04:28:07;4.88;;;1.00;;
11711;SDS011;5912;51.034;6.984;2022-10-26T04:30:34;1.75;;;1.02;;
11711;SDS011;5912;51.034;6.984;2022-10-26T04:33:00;2.25;;;1.20;;
11711;SDS011;5912;51.034;6.984;2022-10-26T04:35:26;4.72;;;1.20;;
11711;SDS011;5912;51.034;6.984;2022-10-26T04:37:58;2.40;;;1.15;;
11711;SDS011;5912;51.034;6.984;2022-10-26T04:40:30;1.90;;;1.10;;
11711;SDS011;5912;51.034;6.984;2022-10-26T04:42:56;1.65;;;1.17;;
11711;SDS011;5912;51.034;6.984;2022-10-26T04:45:21;4.60;;;1.30;;
11711;SDS011;5912;51.034;6.984;2022-10-26T04:47:47;2.53;;;1.15;;
11711;SDS011;5912;51.034;6.984;2022-10-26T04:50:26;2.35;;;1.00;;
11711;SDS011;5912;51.034;6.984;2022-10-26T04:52:52;2.10;;;1.13;;
11711;SDS011;5912;51.034;6.984;2022-10-26T04:55:17;4.28;;;1.10;;
11711;SDS011;5912;51.034;6.984;2022-10-26T04:57:43;3.45;;;1.45;;
11711;SDS011;5912;51.034;6.984;2022-10-26T05:00:09;3.33;;;1.40;;
11711;SDS011;5912;51.034;6.984;2022-10-26T05:02:35;4.20;;;1.50;;
11711;SDS011;5912;51.034;6.984;2022-10-26T05:05:00;4.15;;;1.20;;
11711;SDS011;5912;51.034;6.984;2022-10-26T05:07:25;4.15;;;1.30;;
11711;SDS011;5912;51.034;6.984;2022-10-26T05:09:51;2.70;;;1.20;;
11711;SDS011;5912;51.034;6.984;2022-10-26T05:12:16;5.47;;;1.08;;
11711;SDS011;5912;51.034;6.984;2022-10-26T05:14:41;3.17;;;1.20;;
11711;SDS011;5912;51.034;6.984;2022-10-26T05:17:07;2.92;;;1.13;;
11711;SDS011;5912;51.034;6.984;2022-10-26T05:19:32;1.80;;;1.13;;
11711;SDS011;5912;51.034;6.984;2022-10-26T05:21:57;3.63;;;1.30;;
11711;SDS011;5912;51.034;6.984;2022-10-26T05:24:23;2.95;;;1.10;;
11711;SDS011;5912;51.034;6.984;2022-10-26T05:26:48;2.25;;;1.00;;
11711;SDS011;5912;51.034;6.984;2022-10-26T05:29:13;2.78;;;1.20;;
11711;SDS011;5912;51.034;6.984;2022-10-26T05:31:39;8.90;;;1.20;;
11711;SDS011;5912;51.034;6.984;2022-10-26T05:34:04;2.97;;;1.20;;
11711;SDS011;5912;51.034;6.984;2022-10-26T05:36:29;1.67;;;1.20;;
11711;SDS011;5912;51.034;6.984;2022-10-26T05:38:58;3.28;;;1.00;;
11711;SDS011;5912;51.034;6.984;2022-10-26T05:41:24;3.08;;;1.10;;
11711;SDS011;5912;51.034;6.984;2022-10-26T05:43:49;3.85;;;1.20;;
11711;SDS011;5912;51.034;6.984;2022-10-26T05:46:14;2.55;;;1.15;;
11711;SDS011;5912;51.034;6.984;2022-10-26T05:48:40;1.77;;;0.98;;
11711;SDS011;5912;51.034;6.984;2022-10-26T05:51:05;8.02;;;1.25;;
11711;SDS011;5912;51.034;6.984;2022-10-26T05:53:30;2.00;;;1.10;;
11711;SDS011;5912;51.034;6.984;2022-10-26T05:55:56;2.65;;;1.05;;
11711;SDS011;5912;51.034;6.984;2022-10-26T05:58:22;2.00;;;1.23;;
11711;SDS011;5912;51.034;6.984;2022-10-26T06:03:42;2.05;;;1.00;;
11711;SDS011;5912;51.034;6.984;2022-10-26T06:06:12;3.20;;;1.00;;
11711;SDS011;5912;51.034;6.984;2022-10-26T06:08:37;2.08;;;1.20;;
11711;SDS011;5912;51.034;6.984;2022-10-26T06:11:03;1.92;;;1.00;;
11711;SDS011;5912;51.034;6.984;2022-10-26T06:13:29;5.00;;;1.30;;
11711;SDS011;5912;51.034;6.984;2022-10-26T06:16:16;3.65;;;1.10;;
11711;SDS011;5912;51.034;6.984;2022-10-26T06:21:55;3.65;;;1.05;;
11711;SDS011;5912;51.034;6.984;2022-10-26T06:27:05;2.50;;;1.45;;
11711;SDS011;5912;51.034;6.984;2022-10-26T06:29:47;1.70;;;1.10;;
11711;SDS011;5912;51.034;6.984;2022-10-26T06:32:14;1.45;;;1.02;;
11711;SDS011;5912;51.034;6.984;2022-10-26T06:34:42;2.65;;;1.30;;
11711;SDS011;5912;51.034;6.984;2022-10-26T06:37:12;2.60;;;1.27;;
11711;SDS011;5912;51.034;6.984;2022-10-26T06:39:39;1.83;;;1.08;;
11711;SDS011;5912;51.034;6.984;2022-10-26T06:42:09;2.40;;;1.05;;
11711;SDS011;5912;51.034;6.984;2022-10-26T06:44:35;2.50;;;1.50;;
11711;SDS011;5912;51.034;6.984;2022-10-26T06:47:05;2.10;;;1.00;;
11711;SDS011;5912;51.034;6.984;2022-10-26T06:49:38;2.47;;;1.20;;
11711;SDS011;5912;51.034;6.984;2022-10-26T06:57:16;2.33;;;1.08;;
11711;SDS011;5912;51.034;6.984;2022-10-26T06:59:50;3.40;;;1.52;;
11711;SDS011;5912;51.034;6.984;2022-10-26T07:05:39;2.58;;;1.17;;
11711;SDS011;5912;51.034;6.984;2022-10-26T07:08:04;4.10;;;1.20;;
11711;SDS011;5912;51.034;6.984;2022-10-26T07:10:30;3.33;;;1.40;;
11711;SDS011;5912;51.034;6.984;2022-10-26T07:12:56;3.38;;;1.08;;
11711;SDS011;5912;51.034;6.984;2022-10-26T07:15:21;5.85;;;1.50;;
11711;SDS011;5912;51.034;6.984;2022-10-26T07:17:47;7.22;;;1.30;;
11711;SDS011;5912;51.034;6.984;2022-10-26T07:20:14;2.72;;;1.20;;
11711;SDS011;5912;51.034;6.984;2022-10-26T07:22:41;3.17;;;1.38;;
11711;SDS011;5912;51.034;6.984;2022-10-26T07:25:09;3.45;;;1.45;;
11711;SDS011;5912;51.034;6.984;2022-10-26T07:27:36;4.68;;;1.35;;
11711;SDS011;5912;51.034;6.984;2022-10-26T07:30:01;1.88;;;1.02;;
11711;SDS011;5912;51.034;6.984;2022-10-26T07:32:27;7.50;;;1.40;;
11711;SDS011;5912;51.034;6.984;2022-10-26T07:34:53;3.03;;;1.15;;
11711;SDS011;5912;51.034;6.984;2022-10-26T07:37:18;1.38;;;1.23;;
11711;SDS011;5912;51.034;6.984;2022-10-26T07:39:44;3.10;;;1.80;;
11711;SDS011;5912;51.034;6.984;2022-10-26T07:42:09;4.65;;;2.30;;
11711;SDS011;5912;51.034;6.984;2022-10-26T07:44:34;4.15;;;1.45;;
11711;SDS011;5912;51.034;6.984;2022-10-26T07:47:00;2.40;;;1.20;;
11711;SDS011;5912;51.034;6.984;2022-10-26T07:49:25;3.53;;;1.02;;
11711;SDS011;5912;51.034;6.984;2022-10-26T07:51:50;2.13;;;1.30;;
11711;SDS011;5912;51.034;6.984;2022-10-26T07:54:15;3.28;;;1.33;;
11711;SDS011;5912;51.034;6.984;2022-10-26T07:56:41;7.13;;;1.73;;
11711;SDS011;5912;51.034;6.984;2022-10-26T08:02:22;1.40;;;1.20;;
11711;SDS011;5912;51.034;6.984;2022-10-26T08:04:48;3.10;;;1.23;;
11711;SDS011;5912;51.034;6.984;2022-10-26T08:07:13;3.33;;;1.23;;
11711;SDS011;5912;51.034;6.984;2022-10-26T08:09:39;2.03;;;1.08;;
11711;SDS011;5912;51.034;6.984;2022-10-26T08:12:04;2.13;;;1.13;;
11711;SDS011;5912;51.034;6.984;2022-10-26T08:14:30;2.42;;;1.55;;
11711;SDS011;5912;51.034;6.984;2022-10-26T08:16:55;3.28;;;1.30;;
11711;SDS011;5912;51.034;6.984;2022-10-26T08:19:21;2.15;;;1.17;;
11711;SDS011;5912;51.034;6.984;2022-10-26T08:21:46;3.85;;;1.23;;
11711;SDS011;5912;51.034;6.984;2022-10-26T08:24:11;2.78;;;1.27;;
11711;SDS011;5912;51.034;6.984;2022-10-26T08:26:37;3.25;;;1.42;;
11711;SDS011;5912;51.034;6.984;2022-10-26T08:29:02;2.92;;;1.40;;
11711;SDS011;5912;51.034;6.984;2022-10-26T08:31:27;4.13;;;1.25;;
11711;SDS011;5912;51.034;6.984;2022-10-26T08:33:54;5.40;;;1.23;;
11711;SDS011;5912;51.034;6.984;2022-10-26T08:36:22;2.35;;;1.20;;
11711;SDS011;5912;51.034;6.984;2022-10-26T08:38:49;2.40;;;1.15;;
11711;SDS011;5912;51.034;6.984;2022-10-26T08:41:14;3.85;;;1.15;;
11711;SDS011;5912;51.034;6.984;2022-10-26T08:43:41;2.47;;;1.20;;
11711;SDS011;5912;51.034;6.984;2022-10-26T08:46:18;3.42;;;1.20;;
11711;SDS011;5912;51.034;6.984;2022-10-26T08:48:51;5.32;;;1.33;;
11711;SDS011;5912;51.034;6.984;2022-10-26T08:53:53;2.90;;;1.50;;
11711;SDS011;5912;51.034;6.984;2022-10-26T08:56:46;1.85;;;0.95;;
11711;SDS011;5912;51.034;6.984;2022-10-26T09:02:14;3.38;;;1.30;;
11711;SDS011;5912;51.034;6.984;2022-10-26T09:04:41;3.67;;;1.63;;
11711;SDS011;5912;51.034;6.984;2022-10-26T09:09:41;2.53;;;1.20;;
11711;SDS011;5912;51.034;6.984;2022-10-26T09:17:45;3.30;;;1.30;;
11711;SDS011;5912;51.034;6.984;2022-10-26T09:25:28;1.80;;;1.40;;
11711;SDS011;5912;51.034;6.984;2022-10-26T09:28:02;2.13;;;1.45;;
11711;SDS011;5912;51.034;6.984;2022-10-26T09:30:28;2.97;;;1.40;;
11711;SDS011;5912;51.034;6.984;2022-10-26T09:32:58;4.53;;;1.63;;
11711;SDS011;5912;51.034;6.984;2022-10-26T09:35:39;4.53;;;1.40;;
11711;SDS011;5912;51.034;6.984;2022-10-26T09:38:13;4.30;;;1.40;;
11711;SDS011;5912;51.034;6.984;2022-10-26T09:49:20;4.55;;;1.65;;
11711;SDS011;5912;51.034;6.984;2022-10-26T09:51:54;7.00;;;1.45;;
11711;SDS011;5912;51.034;6.984;2022-10-26T09:54:19;3.50;;;1.63;;
11711;SDS011;5912;51.034;6.984;2022-10-26T09:56:46;6.30;;;1.23;;
11711;SDS011;5912;51.034;6.984;2022-10-26T09:59:16;4.10;;;1.50;;
11711;SDS011;5912;51.034;6.984;2022-10-26T10:01:45;5.90;;;1.63;;
11711;SDS011;5912;51.034;6.984;2022-10-26T10:06:47;3.05;;;1.63;;
11711;SDS011;5912;51.034;6.984;2022-10-26T10:09:18;2.85;;;1.50;;
11711;SDS011;5912;51.034;6.984;2022-10-26T10:14:19;3.20;;;1.17;;
11711;SDS011;5912;51.034;6.984;2022-10-26T10:16:49;5.03;;;1.17;;
11711;SDS011;5912;51.034;6.984;2022-10-26T10:19:27;3.65;;;1.33;;
11711;SDS011;5912;51.034;6.984;2022-10-26T10:21:58;3.92;;;1.42;;
11711;SDS011;5912;51.034;6.984;2022-10-26T10:27:03;5.00;;;1.65;;
11711;SDS011;5912;51.034;6.984;2022-10-26T10:29:50;6.00;;;1.40;;
11711;SDS011;5912;51.034;6.984;2022-10-26T10:32:20;2.97;;;1.10;;
11711;SDS011;5912;51.034;6.984;2022-10-26T10:34:56;3.10;;;1.17;;
11711;SDS011;5912;51.034;6.984;2022-10-26T10:37:30;2.08;;;1.05;;
11711;SDS011;5912;51.034;6.984;2022-10-26T10:42:38;4.75;;;1.45;;
11711;SDS011;5912;51.034;6.984;2022-10-26T10:45:06;2.20;;;1.20;;
11711;SDS011;5912;51.034;6.984;2022-10-26T10:53:24;2.42;;;1.30;;
11711;SDS011;5912;51.034;6.984;2022-10-26T10:59:34;2.58;;;1.20;;
11711;SDS011;5912;51.034;6.984;2022-10-26T11:07:22;2.47;;;1.40;;
11711;SDS011;5912;51.034;6.984;2022-10-26T11:09:50;3.97;;;1.45;;
11711;SDS011;5912;51.034;6.984;2022-10-26T11:12:43;2.70;;;1.55;;
11711;SDS011;5912;51.034;6.984;2022-10-26T11:15:15;2.30;;;1.40;;
11711;SDS011;5912;51.034;6.984;2022-10-26T11:20:35;4.07;;;1.60;;
11711;SDS011;5912;51.034;6.984;2022-10-26T11:25:55;2.67;;;1.73;;
11711;SDS011;5912;51.034;6.984;2022-10-26T11:28:39;2.47;;;1.30;;
11711;SDS011;5912;51.034;6.984;2022-10-26T11:31:14;2.75;;;1.48;;
11711;SDS011;5912;51.034;6.984;2022-10-26T11:33:58;4.60;;;1.50;;
11711;SDS011;5912;51.034;6.984;2022-10-26T11:36:32;4.00;;;1.73;;
11711;SDS011;5912;51.034;6.984;2022-10-26T11:39:17;4.97;;;1.40;;
11711;SDS011;5912;51.034;6.984;2022-10-26T11:41:54;5.20;;;1.10;;
11711;SDS011;5912;51.034;6.984;2022-10-26T11:44:29;2.25;;;1.00;;
11711;SDS011;5912;51.034;6.984;2022-10-26T11:47:45;3.40;;;0.90;;
11711;SDS011;5912;51.034;6.984;2022-10-26T11:52:27;2.08;;;0.95;;
11711;SDS011;5912;51.034;6.984;2022-10-26T11:54:58;0.88;;;0.70;;
11711;SDS011;5912;51.034;6.984;2022-10-26T11:57:26;2.55;;;0.80;;
11711;SDS011;5912;51.034;6.984;2022-10-26T11:59:56;1.70;;;0.73;;
11711;SDS011;5912;51.034;6.984;2022-10-26T12:02:25;3.08;;;0.70;;
11711;SDS011;5912;51.034;6.984;2022-10-26T12:04:52;2.60;;;0.70;;
11711;SDS011;5912;51.034;6.984;2022-10-26T12:07:25;2.05;;;0.60;;
11711;SDS011;5912;51.034;6.984;2022-10-26T12:10:01;1.38;;;0.63;;
11711;SDS011;5912;51.034;6.984;2022-10-26T12:15:08;1.52;;;0.63;;
11711;SDS011;5912;51.034;6.984;2022-10-26T12:17:44;0.82;;;0.60;;
11711;SDS011;5912;51.034;6.984;2022-10-26T12:22:57;3.78;;;0.75;;
11711;SDS011;5912;51.034;6.984;2022-10-26T12:25:22;2.53;;;0.60;;
11711;SDS011;5912;51.034;6.984;2022-10-26T12:27:52;1.20;;;0.65;;
11711;SDS011;5912;51.034;6.984;2022-10-26T12:35:27;2.53;;;0.82;;
11711;SDS011;5912;51.034;6.984;2022-10-26T12:40:48;1.42;;;0.93;;
11711;SDS011;5912;51.034;6.984;2022-10-26T12:43:37;2.58;;;1.48;;
11711;SDS011;5912;51.034;6.984;2022-10-26T12:56:36;1.60;;;0.70;;
11711;SDS011;5912;51.034;6.984;2022-10-26T13:01:46;1.85;;;0.70;;
11711;SDS011;5912;51.034;6.984;2022-10-26T13:04:24;1.88;;;0.70;;
11711;SDS011;5912;51.034;6.984;2022-10-26T13:09:29;1.88;;;0.70;;
11711;SDS011;5912;51.034;6.984;2022-10-26T13:11:57;1.73;;;0.50;;
11711;SDS011;5912;51.034;6.984;2022-10-26T13:14:37;2.22;;;0.70;;
11711;SDS011;5912;51.034;6.984;2022-10-26T13:17:05;1.45;;;0.82;;
11711;SDS011;5912;51.034;6.984;2022-10-26T13:19:46;3.38;;;0.80;;
11711;SDS011;5912;51.034;6.984;2022-10-26T13:22:13;2.67;;;0.70;;
11711;SDS011;5912;51.034;6.984;2022-10-26T13:24:47;1.95;;;0.70;;
11711;SDS011;5912;51.034;6.984;2022-10-26T13:32:28;1.75;;;0.68;;
11711;SDS011;5912;51.034;6.984;2022-10-26T13:35:02;1.92;;;0.75;;
11711;SDS011;5912;51.034;6.984;2022-10-26T13:37:30;4.32;;;0.63;;
11711;SDS011;5912;51.034;6.984;2022-10-26T13:39:57;1.38;;;0.80;;
11711;SDS011;5912;51.034;6.984;2022-10-26T13:42:31;0.98;;;0.60;;
11711;SDS011;5912;51.034;6.984;2022-10-26T13:45:04;3.65;;;0.80;;
11711;SDS011;5912;51.034;6.984;2022-10-26T13:47:44;1.98;;;0.70;;
11711;SDS011;5912;51.034;6.984;2022-10-26T13:50:14;2.20;;;0.60;;
11711;SDS011;5912;51.034;6.984;2022-10-26T13:52:44;1.90;;;0.52;;
11711;SDS011;5912;51.034;6.984;2022-10-26T13:55:28;1.17;;;0.68;;
11711;SDS011;5912;51.034;6.984;2022-10-26T14:00:34;0.57;;;0.47;;
11711;SDS011;5912;51.034;6.984;2022-10-26T14:03:11;1.38;;;0.70;;
11711;SDS011;5912;51.034;6.984;2022-10-26T14:05:45;1.25;;;0.80;;
11711;SDS011;5912;51.034;6.984;2022-10-26T14:08:15;1.63;;;0.75;;
11711;SDS011;5912;51.034;6.984;2022-10-26T14:10:44;1.15;;;0.63;;
11711;SDS011;5912;51.034;6.984;2022-10-26T14:13:13;2.08;;;0.70;;
11711;SDS011;5912;51.034;6.984;2022-10-26T14:15:42;1.45;;;0.65;;
11711;SDS011;5912;51.034;6.984;2022-10-26T14:18:14;1.38;;;0.85;;
11711;SDS011;5912;51.034;6.984;2022-10-26T14:20:46;0.93;;;0.77;;
11711;SDS011;5912;51.034;6.984;2022-10-26T14:23:44;0.75;;;0.63;;
11711;SDS011;5912;51.034;6.984;2022-10-26T14:26:19;1.40;;;0.85;;
11711;SDS011;5912;51.034;6.984;2022-10-26T14:28:50;1.30;;;0.70;;
11711;SDS011;5912;51.034;6.984;2022-10-26T14:33:47;1.48;;;1.05;;
11711;SDS011;5912;51.034;6.984;2022-10-26T14:36:13;2.40;;;0.75;;
11711;SDS011;5912;51.034;6.984;2022-10-26T14:38:46;1.30;;;0.70;;
11711;SDS011;5912;51.034;6.984;2022-10-26T14:41:17;2.30;;;0.82;;
11711;SDS011;5912;51.034;6.984;2022-10-26T14:43:44;1.33;;;0.68;;
11711;SDS011;5912;51.034;6.984;2022-10-26T14:46:12;4.13;;;0.52;;
11711;SDS011;5912;51.034;6.984;2022-10-26T14:48:40;1.02;;;0.65;;
11711;SDS011;5912;51.034;6.984;2022-10-26T14:51:16;0.88;;;0.57;;
11711;SDS011;5912;51.034;6.984;2022-10-26T14:53:47;1.20;;;0.70;;
11711;SDS011;5912;51.034;6.984;2022-10-26T14:56:28;1.30;;;0.70;;
11711;SDS011;5912;51.034;6.984;2022-10-26T14:59:09;1.23;;;0.73;;
11711;SDS011;5912;51.034;6.984;2022-10-26T15:01:56;1.63;;;0.65;;
11711;SDS011;5912;51.034;6.984;2022-10-26T15:04:37;2.40;;;0.90;;
11711;SDS011;5912;51.034;6.984;2022-10-26T15:12:06;1.45;;;0.82;;
11711;SDS011;5912;51.034;6.984;2022-10-26T15:14:41;0.93;;;0.60;;
11711;SDS011;5912;51.034;6.984;2022-10-26T15:17:12;1.65;;;1.00;;
11711;SDS011;5912;51.034;6.984;2022-10-26T15:19:56;1.92;;;0.82;;
11711;SDS011;5912;51.034;6.984;2022-10-26T15:22:27;0.85;;;0.80;;
11711;SDS011;5912;51.034;6.984;2022-10-26T15:24:54;3.85;;;1.00;;
11711;SDS011;5912;51.034;6.984;2022-10-26T15:27:21;3.08;;;1.20;;
11711;SDS011;5912;51.034;6.984;2022-10-26T15:29:49;2.55;;;1.33;;
11711;SDS011;5912;51.034;6.984;2022-10-26T15:32:33;1.80;;;0.80;;
11711;SDS011;5912;51.034;6.984;2022-10-26T15:37:55;1.55;;;1.10;;
11711;SDS011;5912;51.034;6.984;2022-10-26T15:40:22;2.55;;;0.80;;
11711;SDS011;5912;51.034;6.984;2022-10-26T15:42:53;1.35;;;1.20;;
11711;SDS011;5912;51.034;6.984;2022-10-26T15:47:53;3.47;;;1.10;;
11711;SDS011;5912;51.034;6.984;2022-10-26T15:50:22;3.58;;;1.30;;
11711;SDS011;5912;51.034;6.984;2022-10-26T15:52:49;1.30;;;1.10;;
11711;SDS011;5912;51.034;6.984;2022-10-26T15:55:20;2.05;;;1.10;;
11711;SDS011;5912;51.034;6.984;2022-10-26T15:57:45;3.47;;;1.00;;
11711;SDS011;5912;51.034;6.984;2022-10-26T16:00:14;1.10;;;0.98;;
11711;SDS011;5912;51.034;6.984;2022-10-26T16:02:41;1.55;;;0.95;;
11711;SDS011;5912;51.034;6.984;2022-10-26T16:05:09;4.15;;;1.00;;
11711;SDS011;5912;51.034;6.984;2022-10-26T16:07:36;2.92;;;1.05;;
11711;SDS011;5912;51.034;6.984;2022-10-26T16:10:02;5.25;;;1.00;;
11711;SDS011;5912;51.034;6.984;2022-10-26T16:12:27;3.08;;;1.20;;
11711;SDS011;5912;51.034;6.984;2022-10-26T16:14:53;3.63;;;1.00;;
11711;SDS011;5912;51.034;6.984;2022-10-26T16:17:18;0.85;;;0.70;;
11711;SDS011;5912;51.034;6.984;2022-10-26T16:19:43;1.60;;;0.82;;
11711;SDS011;5912;51.034;6.984;2022-10-26T16:22:09;1.48;;;0.90;;
11711;SDS011;5912;51.034;6.984;2022-10-26T16:24:35;1.83;;;1.00;;
11711;SDS011;5912;51.034;6.984;2022-10-26T16:27:00;1.33;;;1.00;;
11711;SDS011;5912;51.034;6.984;2022-10-26T16:29:25;0.70;;;0.65;;
11711;SDS011;5912;51.034;6.984;2022-10-26T16:31:51;1.15;;;0.63;;
11711;SDS011;5912;51.034;6.984;2022-10-26T16:34:16;2.70;;;1.20;;
11711;SDS011;5912;51.034;6.984;2022-10-26T16:36:42;2.30;;;2.00;;
11711;SDS011;5912;51.034;6.984;2022-10-26T16:39:08;4.07;;;3.42;;
11711;SDS011;5912;51.034;6.984;2022-10-26T16:41:36;7.97;;;6.38;;
11711;SDS011;5912;51.034;6.984;2022-10-26T16:44:01;6.25;;;5.47;;
11711;SDS011;5912;51.034;6.984;2022-10-26T16:46:26;6.68;;;5.07;;
11711;SDS011;5912;51.034;6.984;2022-10-26T16:48:52;5.10;;;4.18;;
11711;SDS011;5912;51.034;6.984;2022-10-26T16:51:18;4.55;;;3.78;;
11711;SDS011;5912;51.034;6.984;2022-10-26T16:53:49;3.13;;;2.45;;
11711;SDS011;5912;51.034;6.984;2022-10-26T16:56:17;3.10;;;2.08;;
11711;SDS011;5912;51.034;6.984;2022-10-26T16:58:45;3.13;;;2.00;;
11711;SDS011;5912;51.034;6.984;2022-10-26T17:01:10;3.03;;;1.70;;
11711;SDS011;5912;51.034;6.984;2022-10-26T17:03:41;3.35;;;2.40;;
11711;SDS011;5912;51.034;6.984;2022-10-26T17:06:07;4.00;;;2.60;;
11711;SDS011;5912;51.034;6.984;2022-10-26T17:08:33;3.72;;;2.80;;
11711;SDS011;5912;51.034;6.984;2022-10-26T17:11:06;5.47;;;2.78;;
11711;SDS011;5912;51.034;6.984;2022-10-26T17:13:37;3.33;;;2.15;;
11711;SDS011;5912;51.034;6.984;2022-10-26T17:16:04;3.55;;;2.03;;
11711;SDS011;5912;51.034;6.984;2022-10-26T17:18:29;4.35;;;2.22;;
11711;SDS011;5912;51.034;6.984;2022-10-26T17:20:55;3.28;;;1.90;;
11711;SDS011;5912;51.034;6.984;2022-10-26T17:23:21;4.15;;;2.85;;
11711;SDS011;5912;51.034;6.984;2022-10-26T17:25:46;2.92;;;2.10;;
11711;SDS011;5912;51.034;6.984;2022-10-26T17:28:12;2.70;;;2.03;;
11711;SDS011;5912;51.034;6.984;2022-10-26T17:30:37;3.17;;;2.03;;
11711;SDS011;5912;51.034;6.984;2022-10-26T17:33:03;3.95;;;2.30;;
11711;SDS011;5912;51.034;6.984;2022-10-26T17:35:30;4.22;;;2.25;;
11711;SDS011;5912;51.034;6.984;2022-10-26T17:37:57;4.75;;;2.55;;
11711;SDS011;5912;51.034;6.984;2022-10-26T17:40:22;4.07;;;2.70;;
11711;SDS011;5912;51.034;6.984;2022-10-26T17:42:47;3.63;;;2.20;;
11711;SDS011;5912;51.034;6.984;2022-10-26T17:45:12;2.95;;;2.40;;